Enid, OK

11:32 PM CDT on August 24, 2016 (GMT -0500)
Willow Run | | Change Station

Elev 1268 ft 36.42 °N, 97.90 °W | Updated 1 second ago

Light Thunderstorms and Rain
Light Thunderstorm Rain
77.2 °F
Feels Like 79 °F
N
7.8
Wind Variable Wind from SW
Gusts 11.9 mph

Today
High -- | Low -- °F
--% Chance of Precip.
Yesterday
High -- | Low -- °F
Precip. -- in
Pressure 29.99 in
Visibility 7.0 miles
Clouds Mostly Cloudy 1800 ft
Mostly Cloudy 6000 ft
Heat Index 79 °F
Dew Point 68 °F
Humidity 73%
Rainfall 0.56 in
Snow Depth Not available.
6:56 AM 8:09 PM
Waning Gibbous, 50% visible
SPECI KEND 250428Z 18010KT 7SM R17C/5500FT -TSRA BKN018 BKN060 25/21 A2999 RMK AO2A LTG DSNT NE
Pressure 29.99 in
Visibility 7.0 miles
Clouds Mostly Cloudy 1800 ft
Mostly Cloudy 6000 ft
Heat Index 79 °F
Dew Point 68 °F
Humidity 73%
Rainfall 0.56 in
Snow Depth Not available.
6:56 AM 8:09 PM
Waning Gibbous, 50% visible
SPECI KEND 250428Z 18010KT 7SM R17C/5500FT -TSRA BKN018 BKN060 25/21 A2999 RMK AO2A LTG DSNT NE

10-Day Weather Forecast

Almanac

Astronomy

Aug. 24, 2016 Rise Set
Actual Time
Civil Twilight
Nautical Twilight
Astronomical Twilight
Moon
Length of Visible Light
Length of Day
Tomorrow will be .
, % of the Moon is Illuminated

Today's Extremes

State Highs State Lows

Community

WunderPhotos

Upload Photos

1,934,796 photos uploaded!

WunderBlog® & News

Nearby

Air Quality

  Air Quality AQ Index Pollutant
Not available.

Snow Depth

Station Depth Elevation

Earthquake Activity

City Distance Mag. Time & Date
Minimum magnitude displayed is 2.5.

Coastal Water Temperatures

Place Temperature

Stations

Nearby Weather Stations

Station Location Temp. Windchill Dew Point Humidity Wind Precip. Elev Updated Type
                   

Watches & Warnings

There are currently no watches in effect.